METAR Data
IDs: Format: Raw Decoded Include TAF

Data at: 0021 UTC 30 May 2020

METAR for:KCGS (College Park Arpt, MD, US)
Text:KCGS 300015Z AUTO 18005KT 10SM CLR 26/20 A2991 RMK AO1 T02610195
Temperature: 26.1°C ( 79°F)
Dewpoint: 19.5°C ( 67°F) [RH = 67%]
Pressure (altimeter):29.91 inches Hg (1013.0 mb)
Winds:from the S (180 degrees) at 6 MPH (5 knots; 2.6 m/s)
Visibility:10 or more sm (16+ km)
Ceiling:at least 12,000 feet AGL
Clouds:sky clear below 12,000 feet AGL
QC Flag:automated observation with no human augmentation